sensor_id;sensor_type;location;lat;lon;timestamp;pressure;altitude;pressure_sealevel;temperature;humidity
6514;BME280;3290;47.716;9.070;2023-03-20T00:00:56;97232.69;;;11.51;100.00
6514;BME280;3290;47.716;9.070;2023-03-20T00:03:22;97222.94;;;11.27;100.00
6514;BME280;3290;47.716;9.070;2023-03-20T00:05:47;97237.03;;;11.26;100.00
6514;BME280;3290;47.716;9.070;2023-03-20T00:08:13;97230.72;;;11.40;100.00
6514;BME280;3290;47.716;9.070;2023-03-20T00:10:41;97230.22;;;11.18;100.00
6514;BME280;3290;47.716;9.070;2023-03-20T00:13:12;97235.59;;;11.30;100.00
6514;BME280;3290;47.716;9.070;2023-03-20T00:15:41;97237.28;;;11.18;100.00
6514;BME280;3290;47.716;9.070;2023-03-20T00:18:15;97232.66;;;11.20;100.00
6514;BME280;3290;47.716;9.070;2023-03-20T00:20:45;97236.69;;;11.16;100.00
6514;BME280;3290;47.716;9.070;2023-03-20T00:23:11;97226.16;;;11.29;100.00
6514;BME280;3290;47.716;9.070;2023-03-20T00:25:37;97237.22;;;11.31;100.00
6514;BME280;3290;47.716;9.070;2023-03-20T00:28:30;97221.50;;;11.24;100.00
6514;BME280;3290;47.716;9.070;2023-03-20T00:31:00;97229.25;;;11.13;100.00
6514;BME280;3290;47.716;9.070;2023-03-20T00:33:26;97216.28;;;11.24;100.00
6514;BME280;3290;47.716;9.070;2023-03-20T00:35:51;97223.75;;;11.21;100.00
6514;BME280;3290;47.716;9.070;2023-03-20T00:38:16;97226.63;;;11.13;100.00
6514;BME280;3290;47.716;9.070;2023-03-20T00:40:42;97226.47;;;11.02;100.00
6514;BME280;3290;47.716;9.070;2023-03-20T00:43:09;97226.88;;;11.05;100.00
6514;BME280;3290;47.716;9.070;2023-03-20T00:45:37;97228.91;;;11.03;100.00
6514;BME280;3290;47.716;9.070;2023-03-20T00:48:03;97223.06;;;11.32;100.00
6514;BME280;3290;47.716;9.070;2023-03-20T00:50:30;97231.88;;;11.13;100.00
6514;BME280;3290;47.716;9.070;2023-03-20T00:52:57;97227.81;;;11.17;100.00
6514;BME280;3290;47.716;9.070;2023-03-20T00:55:25;97220.13;;;11.22;100.00
6514;BME280;3290;47.716;9.070;2023-03-20T00:57:56;97223.56;;;11.16;100.00
6514;BME280;3290;47.716;9.070;2023-03-20T01:02:53;97217.91;;;11.19;100.00
6514;BME280;3290;47.716;9.070;2023-03-20T01:05:20;97221.16;;;11.15;100.00
6514;BME280;3290;47.716;9.070;2023-03-20T01:07:46;97223.16;;;11.19;100.00
6514;BME280;3290;47.716;9.070;2023-03-20T01:10:12;97229.94;;;10.96;100.00
6514;BME280;3290;47.716;9.070;2023-03-20T01:12:39;97228.72;;;10.98;100.00
6514;BME280;3290;47.716;9.070;2023-03-20T01:15:15;97237.75;;;11.09;100.00
6514;BME280;3290;47.716;9.070;2023-03-20T01:17:41;97227.22;;;11.15;100.00
6514;BME280;3290;47.716;9.070;2023-03-20T01:20:18;97230.53;;;11.04;100.00
6514;BME280;3290;47.716;9.070;2023-03-20T01:22:45;97223.25;;;11.06;100.00
6514;BME280;3290;47.716;9.070;2023-03-20T01:25:10;97223.88;;;11.02;100.00
6514;BME280;3290;47.716;9.070;2023-03-20T01:27:36;97223.56;;;11.16;100.00
6514;BME280;3290;47.716;9.070;2023-03-20T01:30:02;97222.91;;;10.90;100.00
6514;BME280;3290;47.716;9.070;2023-03-20T01:32:28;97227.72;;;10.99;100.00
6514;BME280;3290;47.716;9.070;2023-03-20T01:34:53;97223.94;;;10.89;100.00
6514;BME280;3290;47.716;9.070;2023-03-20T01:37:24;97228.59;;;10.87;100.00
6514;BME280;3290;47.716;9.070;2023-03-20T01:39:50;97224.63;;;11.09;100.00
6514;BME280;3290;47.716;9.070;2023-03-20T01:42:15;97222.88;;;10.96;100.00
6514;BME280;3290;47.716;9.070;2023-03-20T01:44:41;97222.13;;;10.83;100.00
6514;BME280;3290;47.716;9.070;2023-03-20T01:47:18;97230.16;;;10.94;100.00
6514;BME280;3290;47.716;9.070;2023-03-20T01:50:18;97226.88;;;11.05;100.00
6514;BME280;3290;47.716;9.070;2023-03-20T01:52:44;97226.06;;;11.11;100.00
6514;BME280;3290;47.716;9.070;2023-03-20T01:55:10;97224.66;;;11.02;100.00
6514;BME280;3290;47.716;9.070;2023-03-20T01:57:36;97224.72;;;10.96;100.00
6514;BME280;3290;47.716;9.070;2023-03-20T02:00:09;97222.03;;;11.02;100.00
6514;BME280;3290;47.716;9.070;2023-03-20T02:02:37;97229.84;;;11.15;100.00
6514;BME280;3290;47.716;9.070;2023-03-20T02:05:08;97228.09;;;11.03;100.00
6514;BME280;3290;47.716;9.070;2023-03-20T02:07:35;97224.91;;;10.94;100.00
6514;BME280;3290;47.716;9.070;2023-03-20T02:10:09;97231.16;;;10.93;100.00
6514;BME280;3290;47.716;9.070;2023-03-20T02:12:35;97234.22;;;10.90;100.00
6514;BME280;3290;47.716;9.070;2023-03-20T02:15:03;97232.91;;;11.06;100.00
6514;BME280;3290;47.716;9.070;2023-03-20T02:17:28;97227.06;;;11.10;100.00
6514;BME280;3290;47.716;9.070;2023-03-20T02:23:02;97229.31;;;11.00;100.00
6514;BME280;3290;47.716;9.070;2023-03-20T02:26:02;97233.28;;;11.16;100.00
6514;BME280;3290;47.716;9.070;2023-03-20T02:29:20;97225.75;;;11.25;100.00
6514;BME280;3290;47.716;9.070;2023-03-20T02:43:24;97236.56;;;11.05;100.00
6514;BME280;3290;47.716;9.070;2023-03-20T02:51:17;97244.69;;;10.90;100.00
6514;BME280;3290;47.716;9.070;2023-03-20T02:56:31;97244.41;;;11.11;100.00
6514;BME280;3290;47.716;9.070;2023-03-20T02:59:10;97241.81;;;11.05;100.00
6514;BME280;3290;47.716;9.070;2023-03-20T03:01:43;97243.78;;;11.09;100.00
6514;BME280;3290;47.716;9.070;2023-03-20T03:04:15;97247.84;;;11.05;99.74
6514;BME280;3290;47.716;9.070;2023-03-20T03:06:43;97242.13;;;11.15;99.78
6514;BME280;3290;47.716;9.070;2023-03-20T03:11:58;97241.63;;;10.93;100.00
6514;BME280;3290;47.716;9.070;2023-03-20T03:16:54;97244.69;;;10.90;100.00
6514;BME280;3290;47.716;9.070;2023-03-20T03:19:23;97253.88;;;11.06;98.62
6514;BME280;3290;47.716;9.070;2023-03-20T03:21:50;97256.16;;;10.96;100.00
6514;BME280;3290;47.716;9.070;2023-03-20T03:24:30;97255.91;;;11.04;100.00
6514;BME280;3290;47.716;9.070;2023-03-20T03:26:58;97251.03;;;11.14;99.71
6514;BME280;3290;47.716;9.070;2023-03-20T03:29:30;97258.25;;;11.18;99.35
6514;BME280;3290;47.716;9.070;2023-03-20T03:31:57;97259.97;;;11.00;100.00
6514;BME280;3290;47.716;9.070;2023-03-20T03:34:22;97256.47;;;11.12;99.67
6514;BME280;3290;47.716;9.070;2023-03-20T03:44:36;97258.69;;;11.15;99.72
6514;BME280;3290;47.716;9.070;2023-03-20T03:47:18;97258.25;;;11.18;99.54
6514;BME280;3290;47.716;9.070;2023-03-20T03:49:49;97270.84;;;11.03;100.00
6514;BME280;3290;47.716;9.070;2023-03-20T03:52:21;97263.97;;;11.02;100.00
6514;BME280;3290;47.716;9.070;2023-03-20T03:54:51;97275.44;;;11.14;100.00
6514;BME280;3290;47.716;9.070;2023-03-20T03:57:23;97271.25;;;11.07;99.99
6514;BME280;3290;47.716;9.070;2023-03-20T03:59:51;97270.47;;;10.93;100.00
6514;BME280;3290;47.716;9.070;2023-03-20T04:02:19;97276.69;;;11.05;100.00
6514;BME280;3290;47.716;9.070;2023-03-20T04:04:50;97280.53;;;11.03;100.00
6514;BME280;3290;47.716;9.070;2023-03-20T04:07:17;97281.34;;;11.03;100.00
6514;BME280;3290;47.716;9.070;2023-03-20T04:09:42;97288.59;;;11.01;100.00
6514;BME280;3290;47.716;9.070;2023-03-20T04:14:50;97287.16;;;11.05;100.00
6514;BME280;3290;47.716;9.070;2023-03-20T04:17:15;97286.13;;;11.13;99.87
6514;BME280;3290;47.716;9.070;2023-03-20T04:19:40;97293.66;;;10.96;100.00
6514;BME280;3290;47.716;9.070;2023-03-20T04:22:05;97295.91;;;10.93;100.00
6514;BME280;3290;47.716;9.070;2023-03-20T04:24:31;97289.41;;;10.95;100.00
6514;BME280;3290;47.716;9.070;2023-03-20T04:26:56;97292.09;;;10.89;100.00
6514;BME280;3290;47.716;9.070;2023-03-20T04:29:22;97296.56;;;10.76;100.00
6514;BME280;3290;47.716;9.070;2023-03-20T04:31:47;97293.56;;;10.66;100.00
6514;BME280;3290;47.716;9.070;2023-03-20T04:34:12;97299.56;;;10.79;100.00
6514;BME280;3290;47.716;9.070;2023-03-20T04:36:38;97302.19;;;10.73;100.00
6514;BME280;3290;47.716;9.070;2023-03-20T04:39:03;97305.19;;;10.82;100.00
6514;BME280;3290;47.716;9.070;2023-03-20T04:41:28;97311.22;;;10.89;100.00
6514;BME280;3290;47.716;9.070;2023-03-20T04:43:54;97316.72;;;10.69;100.00
6514;BME280;3290;47.716;9.070;2023-03-20T04:46:19;97316.38;;;10.52;100.00
6514;BME280;3290;47.716;9.070;2023-03-20T04:48:45;97313.13;;;10.57;100.00
6514;BME280;3290;47.716;9.070;2023-03-20T04:51:10;97304.66;;;10.55;100.00
6514;BME280;3290;47.716;9.070;2023-03-20T04:53:35;97313.31;;;10.68;100.00
6514;BME280;3290;47.716;9.070;2023-03-20T04:56:01;97315.88;;;10.81;100.00
6514;BME280;3290;47.716;9.070;2023-03-20T04:58:26;97302.78;;;10.87;100.00
6514;BME280;3290;47.716;9.070;2023-03-20T05:00:51;97301.78;;;10.88;100.00
6514;BME280;3290;47.716;9.070;2023-03-20T05:03:17;97304.41;;;10.76;100.00
6514;BME280;3290;47.716;9.070;2023-03-20T05:05:42;97300.81;;;10.70;100.00
6514;BME280;3290;47.716;9.070;2023-03-20T05:08:08;97300.41;;;10.67;100.00
6514;BME280;3290;47.716;9.070;2023-03-20T05:10:33;97301.84;;;10.63;100.00
6514;BME280;3290;47.716;9.070;2023-03-20T05:12:58;97294.75;;;10.70;100.00
6514;BME280;3290;47.716;9.070;2023-03-20T05:15:25;97296.84;;;10.42;100.00
6514;BME280;3290;47.716;9.070;2023-03-20T05:17:50;97293.22;;;10.43;100.00
6514;BME280;3290;47.716;9.070;2023-03-20T05:20:17;97289.13;;;10.60;100.00
6514;BME280;3290;47.716;9.070;2023-03-20T05:22:42;97298.41;;;10.56;100.00
6514;BME280;3290;47.716;9.070;2023-03-20T05:25:07;97295.41;;;10.52;100.00
6514;BME280;3290;47.716;9.070;2023-03-20T05:27:33;97303.06;;;10.47;100.00
6514;BME280;3290;47.716;9.070;2023-03-20T05:29:58;97303.81;;;10.67;100.00
6514;BME280;3290;47.716;9.070;2023-03-20T05:32:24;97300.44;;;10.54;100.00
6514;BME280;3290;47.716;9.070;2023-03-20T05:34:49;97300.84;;;10.51;100.00
6514;BME280;3290;47.716;9.070;2023-03-20T05:37:14;97302.88;;;10.55;100.00
6514;BME280;3290;47.716;9.070;2023-03-20T05:39:40;97308.50;;;10.59;100.00
6514;BME280;3290;47.716;9.070;2023-03-20T05:42:05;97306.88;;;10.58;100.00
6514;BME280;3290;47.716;9.070;2023-03-20T05:44:31;97313.34;;;10.55;100.00
6514;BME280;3290;47.716;9.070;2023-03-20T05:46:56;97320.19;;;10.63;100.00
6514;BME280;3290;47.716;9.070;2023-03-20T05:49:21;97321.56;;;10.65;100.00
6514;BME280;3290;47.716;9.070;2023-03-20T05:51:47;97328.44;;;10.60;100.00
6514;BME280;3290;47.716;9.070;2023-03-20T05:54:12;97331.44;;;10.70;100.00
6514;BME280;3290;47.716;9.070;2023-03-20T05:56:38;97338.31;;;10.64;100.00
6514;BME280;3290;47.716;9.070;2023-03-20T05:59:03;97333.47;;;10.55;100.00
6514;BME280;3290;47.716;9.070;2023-03-20T06:01:28;97347.13;;;10.82;100.00
6514;BME280;3290;47.716;9.070;2023-03-20T06:03:54;97343.13;;;10.80;100.00
6514;BME280;3290;47.716;9.070;2023-03-20T06:06:19;97343.53;;;10.71;100.00
6514;BME280;3290;47.716;9.070;2023-03-20T06:08:44;97342.72;;;10.77;100.00
6514;BME280;3290;47.716;9.070;2023-03-20T06:11:10;97341.09;;;10.82;100.00
6514;BME280;3290;47.716;9.070;2023-03-20T06:13:36;97346.50;;;10.93;100.00
6514;BME280;3290;47.716;9.070;2023-03-20T06:16:02;97338.88;;;10.85;100.00
6514;BME280;3290;47.716;9.070;2023-03-20T06:18:27;97329.97;;;10.93;100.00
6514;BME280;3290;47.716;9.070;2023-03-20T06:20:54;97335.84;;;10.88;100.00
6514;BME280;3290;47.716;9.070;2023-03-20T06:23:20;97332.59;;;10.99;100.00
6514;BME280;3290;47.716;9.070;2023-03-20T06:25:46;97336.19;;;11.11;100.00
6514;BME280;3290;47.716;9.070;2023-03-20T06:28:11;97339.34;;;11.26;100.00
6514;BME280;3290;47.716;9.070;2023-03-20T06:30:37;97335.28;;;11.30;100.00
6514;BME280;3290;47.716;9.070;2023-03-20T06:33:04;97344.09;;;11.42;99.32
6514;BME280;3290;47.716;9.070;2023-03-20T06:35:30;97344.31;;;11.34;99.67
6514;BME280;3290;47.716;9.070;2023-03-20T06:37:56;97343.13;;;11.30;100.00
6514;BME280;3290;47.716;9.070;2023-03-20T06:40:22;97349.38;;;11.48;99.63
6514;BME280;3290;47.716;9.070;2023-03-20T06:42:48;97346.38;;;11.75;98.03
6514;BME280;3290;47.716;9.070;2023-03-20T06:45:13;97344.44;;;11.64;97.27
6514;BME280;3290;47.716;9.070;2023-03-20T06:47:38;97344.75;;;12.05;96.46
6514;BME280;3290;47.716;9.070;2023-03-20T06:50:05;97349.66;;;12.26;95.08
6514;BME280;3290;47.716;9.070;2023-03-20T06:52:30;97354.44;;;12.77;91.92
6514;BME280;3290;47.716;9.070;2023-03-20T06:54:55;97359.47;;;13.20;87.07
6514;BME280;3290;47.716;9.070;2023-03-20T06:57:22;97360.06;;;13.58;84.85
6514;BME280;3290;47.716;9.070;2023-03-20T06:59:47;97360.06;;;13.05;85.11
6514;BME280;3290;47.716;9.070;2023-03-20T07:02:12;97366.78;;;12.83;88.17
6514;BME280;3290;47.716;9.070;2023-03-20T07:04:38;97374.50;;;12.54;87.85
6514;BME280;3290;47.716;9.070;2023-03-20T07:07:04;97379.91;;;12.35;89.87
6514;BME280;3290;47.716;9.070;2023-03-20T07:09:29;97374.44;;;12.60;88.45
6514;BME280;3290;47.716;9.070;2023-03-20T07:11:55;97374.06;;;12.57;87.52
6514;BME280;3290;47.716;9.070;2023-03-20T07:14:20;97378.19;;;12.46;88.44
6514;BME280;3290;47.716;9.070;2023-03-20T07:16:47;97374.06;;;12.33;88.09
6514;BME280;3290;47.716;9.070;2023-03-20T07:19:12;97377.63;;;12.44;89.31
6514;BME280;3290;47.716;9.070;2023-03-20T07:21:38;97366.59;;;12.78;88.03
6514;BME280;3290;47.716;9.070;2023-03-20T07:24:04;97378.03;;;13.43;86.01
6514;BME280;3290;47.716;9.070;2023-03-20T07:26:31;97364.38;;;13.17;83.51
6514;BME280;3290;47.716;9.070;2023-03-20T07:28:56;97361.53;;;13.19;83.83
6514;BME280;3290;47.716;9.070;2023-03-20T07:31:24;97357.00;;;13.25;83.17
6514;BME280;3290;47.716;9.070;2023-03-20T07:33:50;97357.06;;;14.24;79.80
6514;BME280;3290;47.716;9.070;2023-03-20T07:36:15;97354.59;;;14.52;77.63
6514;BME280;3290;47.716;9.070;2023-03-20T07:38:40;97363.75;;;14.38;77.12
6514;BME280;3290;47.716;9.070;2023-03-20T07:41:06;97355.41;;;14.98;73.91
6514;BME280;3290;47.716;9.070;2023-03-20T07:43:32;97348.09;;;14.88;75.18
6514;BME280;3290;47.716;9.070;2023-03-20T07:46:01;97350.50;;;14.56;75.29
6514;BME280;3290;47.716;9.070;2023-03-20T07:48:26;97344.94;;;15.37;72.92
6514;BME280;3290;47.716;9.070;2023-03-20T07:50:52;97347.38;;;15.04;71.14
6514;BME280;3290;47.716;9.070;2023-03-20T07:53:17;97348.44;;;15.54;69.26
6514;BME280;3290;47.716;9.070;2023-03-20T07:55:42;97356.53;;;15.36;70.88
6514;BME280;3290;47.716;9.070;2023-03-20T07:58:08;97362.31;;;14.99;71.22
6514;BME280;3290;47.716;9.070;2023-03-20T08:00:33;97359.88;;;15.31;71.15
6514;BME280;3290;47.716;9.070;2023-03-20T08:02:59;97362.31;;;15.33;70.85
6514;BME280;3290;47.716;9.070;2023-03-20T08:05:24;97357.97;;;15.16;70.11
6514;BME280;3290;47.716;9.070;2023-03-20T08:07:50;97358.31;;;15.58;68.36
6514;BME280;3290;47.716;9.070;2023-03-20T08:10:16;97365.75;;;15.11;69.49
6514;BME280;3290;47.716;9.070;2023-03-20T08:12:41;97360.97;;;15.47;68.46
6514;BME280;3290;47.716;9.070;2023-03-20T08:15:07;97370.22;;;15.10;69.75
6514;BME280;3290;47.716;9.070;2023-03-20T08:17:32;97375.22;;;14.43;72.03
6514;BME280;3290;47.716;9.070;2023-03-20T08:19:58;97374.91;;;15.08;70.78
6514;BME280;3290;47.716;9.070;2023-03-20T08:22:23;97375.72;;;14.97;70.14
6514;BME280;3290;47.716;9.070;2023-03-20T08:24:49;97383.66;;;15.09;71.66
6514;BME280;3290;47.716;9.070;2023-03-20T08:27:14;97381.78;;;15.43;69.59
6514;BME280;3290;47.716;9.070;2023-03-20T08:29:39;97378.19;;;15.88;68.74
6514;BME280;3290;47.716;9.070;2023-03-20T08:32:05;97372.41;;;16.79;64.53
6514;BME280;3290;47.716;9.070;2023-03-20T08:34:31;97377.50;;;15.93;64.68
6514;BME280;3290;47.716;9.070;2023-03-20T08:36:57;97382.25;;;16.67;62.08
6514;BME280;3290;47.716;9.070;2023-03-20T08:39:23;97385.00;;;15.84;64.60
6514;BME280;3290;47.716;9.070;2023-03-20T08:41:48;97373.13;;;15.87;64.65
6514;BME280;3290;47.716;9.070;2023-03-20T08:44:13;97371.84;;;16.44;62.93
6514;BME280;3290;47.716;9.070;2023-03-20T08:46:39;97370.88;;;16.83;61.32
6514;BME280;3290;47.716;9.070;2023-03-20T08:49:04;97375.28;;;16.78;61.83
6514;BME280;3290;47.716;9.070;2023-03-20T08:51:30;97382.34;;;17.42;59.31
6514;BME280;3290;47.716;9.070;2023-03-20T08:53:56;97380.72;;;16.22;63.12
6514;BME280;3290;47.716;9.070;2023-03-20T08:56:21;97380.28;;;16.14;63.51
6514;BME280;3290;47.716;9.070;2023-03-20T08:58:46;97385.38;;;16.04;63.78
6514;BME280;3290;47.716;9.070;2023-03-20T09:01:12;97379.16;;;15.09;66.63
6514;BME280;3290;47.716;9.070;2023-03-20T09:03:39;97383.75;;;15.36;66.81
6514;BME280;3290;47.716;9.070;2023-03-20T09:06:06;97383.75;;;15.02;68.13
6514;BME280;3290;47.716;9.070;2023-03-20T09:08:32;97380.19;;;14.85;68.29
6514;BME280;3290;47.716;9.070;2023-03-20T09:10:58;97375.38;;;15.05;69.66
6514;BME280;3290;47.716;9.070;2023-03-20T09:13:23;97381.69;;;14.81;69.81
6514;BME280;3290;47.716;9.070;2023-03-20T09:15:50;97378.22;;;14.47;70.07
6514;BME280;3290;47.716;9.070;2023-03-20T09:18:16;97381.28;;;14.33;71.57
6514;BME280;3290;47.716;9.070;2023-03-20T09:20:41;97385.16;;;14.19;71.80
6514;BME280;3290;47.716;9.070;2023-03-20T09:23:07;97386.72;;;14.08;72.97
6514;BME280;3290;47.716;9.070;2023-03-20T09:25:32;97382.59;;;14.53;73.51
6514;BME280;3290;47.716;9.070;2023-03-20T09:27:57;97385.56;;;14.68;73.62
6514;BME280;3290;47.716;9.070;2023-03-20T09:30:23;97380.53;;;14.66;71.59
6514;BME280;3290;47.716;9.070;2023-03-20T09:32:49;97375.16;;;14.61;71.64
6514;BME280;3290;47.716;9.070;2023-03-20T09:35:16;97386.13;;;14.06;73.22
6514;BME280;3290;47.716;9.070;2023-03-20T09:37:42;97379.06;;;13.89;72.32
6514;BME280;3290;47.716;9.070;2023-03-20T09:40:19;97382.88;;;13.93;72.96
6514;BME280;3290;47.716;9.070;2023-03-20T09:53:37;97383.97;;;13.21;78.04
6514;BME280;3290;47.716;9.070;2023-03-20T09:56:12;97384.31;;;13.24;77.63
6514;BME280;3290;47.716;9.070;2023-03-20T09:58:39;97386.63;;;13.39;76.73
6514;BME280;3290;47.716;9.070;2023-03-20T10:01:10;97379.16;;;13.83;75.47
6514;BME280;3290;47.716;9.070;2023-03-20T10:03:43;97376.06;;;14.03;74.08
6514;BME280;3290;47.716;9.070;2023-03-20T10:06:14;97378.91;;;14.54;74.35
6514;BME280;3290;47.716;9.070;2023-03-20T10:08:41;97364.81;;;14.94;70.65
6514;BME280;3290;47.716;9.070;2023-03-20T10:21:45;97377.13;;;14.14;69.83
6514;BME280;3290;47.716;9.070;2023-03-20T10:24:24;97361.28;;;14.88;68.92
6514;BME280;3290;47.716;9.070;2023-03-20T10:26:54;97361.25;;;15.11;67.06
6514;BME280;3290;47.716;9.070;2023-03-20T10:29:28;97364.31;;;14.40;68.37
6514;BME280;3290;47.716;9.070;2023-03-20T10:32:09;97366.72;;;14.30;69.48
6514;BME280;3290;47.716;9.070;2023-03-20T10:37:44;97368.56;;;14.00;70.47
6514;BME280;3290;47.716;9.070;2023-03-20T10:40:36;97364.69;;;14.32;69.79
6514;BME280;3290;47.716;9.070;2023-03-20T10:43:09;97361.34;;;14.37;69.23
6514;BME280;3290;47.716;9.070;2023-03-20T10:45:46;97354.97;;;14.44;69.42
6514;BME280;3290;47.716;9.070;2023-03-20T10:48:22;97348.44;;;14.81;67.92
6514;BME280;3290;47.716;9.070;2023-03-20T10:50:59;97349.44;;;15.25;67.73
6514;BME280;3290;47.716;9.070;2023-03-20T10:56:04;97340.91;;;16.45;60.32
6514;BME280;3290;47.716;9.070;2023-03-20T10:58:34;97335.44;;;16.84;59.30
6514;BME280;3290;47.716;9.070;2023-03-20T11:01:01;97335.75;;;17.89;54.96
6514;BME280;3290;47.716;9.070;2023-03-20T11:03:29;97336.72;;;18.09;54.16
6514;BME280;3290;47.716;9.070;2023-03-20T11:08:34;97324.19;;;18.57;48.84
6514;BME280;3290;47.716;9.070;2023-03-20T11:11:02;97338.38;;;18.10;51.64
6514;BME280;3290;47.716;9.070;2023-03-20T11:13:32;97341.00;;;18.36;51.35
6514;BME280;3290;47.716;9.070;2023-03-20T11:16:16;97344.09;;;17.33;53.13
6514;BME280;3290;47.716;9.070;2023-03-20T11:18:42;97341.22;;;16.65;52.32
6514;BME280;3290;47.716;9.070;2023-03-20T11:21:14;97353.84;;;16.14;53.61
6514;BME280;3290;47.716;9.070;2023-03-20T11:23:40;97362.31;;;16.00;54.59
6514;BME280;3290;47.716;9.070;2023-03-20T11:26:12;97353.66;;;15.49;56.33
6514;BME280;3290;47.716;9.070;2023-03-20T11:28:52;97356.78;;;15.12;58.45
6514;BME280;3290;47.716;9.070;2023-03-20T11:31:32;97362.75;;;15.30;58.16
6514;BME280;3290;47.716;9.070;2023-03-20T11:36:47;97361.59;;;15.37;58.63
6514;BME280;3290;47.716;9.070;2023-03-20T11:39:26;97356.91;;;15.17;60.15
6514;BME280;3290;47.716;9.070;2023-03-20T11:41:54;97365.31;;;14.91;60.39
6514;BME280;3290;47.716;9.070;2023-03-20T11:44:26;97368.72;;;14.80;62.17
6514;BME280;3290;47.716;9.070;2023-03-20T11:49:32;97354.50;;;14.92;61.02
6514;BME280;3290;47.716;9.070;2023-03-20T11:52:14;97357.38;;;15.25;61.97
6514;BME280;3290;47.716;9.070;2023-03-20T11:54:52;97350.47;;;15.24;60.99
6514;BME280;3290;47.716;9.070;2023-03-20T11:57:39;97348.88;;;15.23;59.11
6514;BME280;3290;47.716;9.070;2023-03-20T12:00:22;97349.84;;;15.45;58.13
6514;BME280;3290;47.716;9.070;2023-03-20T12:02:49;97349.84;;;15.56;57.64
6514;BME280;3290;47.716;9.070;2023-03-20T12:08:00;97350.13;;;15.32;57.95
6514;BME280;3290;47.716;9.070;2023-03-20T12:10:30;97345.72;;;15.76;58.36
6514;BME280;3290;47.716;9.070;2023-03-20T12:13:05;97343.84;;;15.88;56.34
6514;BME280;3290;47.716;9.070;2023-03-20T12:15:36;97342.59;;;15.91;56.23
6514;BME280;3290;47.716;9.070;2023-03-20T12:18:25;97339.38;;;15.50;56.59
6514;BME280;3290;47.716;9.070;2023-03-20T12:21:09;97341.69;;;15.58;56.11
6514;BME280;3290;47.716;9.070;2023-03-20T12:29:22;97324.31;;;16.33;54.54
6514;BME280;3290;47.716;9.070;2023-03-20T12:31:58;97326.16;;;16.33;53.89
6514;BME280;3290;47.716;9.070;2023-03-20T12:34:32;97319.25;;;16.32;54.71
6514;BME280;3290;47.716;9.070;2023-03-20T12:36:59;97321.19;;;16.52;53.29
6514;BME280;3290;47.716;9.070;2023-03-20T12:39:36;97312.50;;;16.73;52.82
6514;BME280;3290;47.716;9.070;2023-03-20T12:42:34;97313.06;;;16.75;52.37
6514;BME280;3290;47.716;9.070;2023-03-20T12:45:20;97309.72;;;16.63;52.88
6514;BME280;3290;47.716;9.070;2023-03-20T12:50:31;97320.13;;;16.53;52.00
6514;BME280;3290;47.716;9.070;2023-03-20T12:55:30;97309.22;;;17.63;49.83
6514;BME280;3290;47.716;9.070;2023-03-20T12:58:15;97312.97;;;17.08;51.81
6514;BME280;3290;47.716;9.070;2023-03-20T13:06:13;97302.97;;;17.10;50.55
6514;BME280;3290;47.716;9.070;2023-03-20T13:11:32;97302.88;;;16.67;50.46
6514;BME280;3290;47.716;9.070;2023-03-20T13:14:30;97294.81;;;16.57;51.84
6514;BME280;3290;47.716;9.070;2023-03-20T13:17:16;97299.44;;;16.67;51.96
6514;BME280;3290;47.716;9.070;2023-03-20T13:22:31;97295.03;;;16.72;50.76
6514;BME280;3290;47.716;9.070;2023-03-20T13:30:50;97291.44;;;16.45;52.07
6514;BME280;3290;47.716;9.070;2023-03-20T13:33:47;97280.41;;;16.48;52.34
6514;BME280;3290;47.716;9.070;2023-03-20T13:36:17;97282.53;;;16.51;52.44
6514;BME280;3290;47.716;9.070;2023-03-20T13:38:53;97286.59;;;17.55;49.78
6514;BME280;3290;47.716;9.070;2023-03-20T13:41:23;97277.38;;;16.78;50.47
6514;BME280;3290;47.716;9.070;2023-03-20T13:43:51;97276.75;;;17.29;48.73
6514;BME280;3290;47.716;9.070;2023-03-20T13:46:28;97270.25;;;16.62;49.75
6514;BME280;3290;47.716;9.070;2023-03-20T13:49:03;97281.38;;;16.80;50.04
6514;BME280;3290;47.716;9.070;2023-03-20T13:51:49;97279.00;;;16.62;50.45
6514;BME280;3290;47.716;9.070;2023-03-20T14:03:16;97254.63;;;16.60;50.41
6514;BME280;3290;47.716;9.070;2023-03-20T14:05:44;97252.00;;;16.82;49.36
6514;BME280;3290;47.716;9.070;2023-03-20T14:08:32;97252.47;;;16.95;48.55
6514;BME280;3290;47.716;9.070;2023-03-20T14:13:38;97258.13;;;16.82;49.52
6514;BME280;3290;47.716;9.070;2023-03-20T14:16:08;97256.66;;;16.91;49.37
6514;BME280;3290;47.716;9.070;2023-03-20T14:18:34;97252.19;;;16.75;49.36
6514;BME280;3290;47.716;9.070;2023-03-20T14:21:03;97249.75;;;16.52;50.00
6514;BME280;3290;47.716;9.070;2023-03-20T14:23:47;97244.34;;;16.64;49.63
6514;BME280;3290;47.716;9.070;2023-03-20T14:26:24;97245.50;;;16.51;48.80
6514;BME280;3290;47.716;9.070;2023-03-20T14:31:35;97245.59;;;16.56;48.46
6514;BME280;3290;47.716;9.070;2023-03-20T14:39:49;97237.03;;;16.33;50.00
6514;BME280;3290;47.716;9.070;2023-03-20T14:48:00;97227.41;;;17.23;46.91
6514;BME280;3290;47.716;9.070;2023-03-20T14:53:21;97228.06;;;17.35;47.16
6514;BME280;3290;47.716;9.070;2023-03-20T14:58:45;97220.06;;;17.30;46.05
6514;BME280;3290;47.716;9.070;2023-03-20T15:04:08;97207.22;;;17.18;46.54
6514;BME280;3290;47.716;9.070;2023-03-20T15:06:46;97210.22;;;17.05;46.36
6514;BME280;3290;47.716;9.070;2023-03-20T15:09:12;97202.84;;;17.07;46.11
6514;BME280;3290;47.716;9.070;2023-03-20T15:11:39;97202.00;;;17.23;46.08
6514;BME280;3290;47.716;9.070;2023-03-20T15:14:07;97196.84;;;16.52;47.35
6514;BME280;3290;47.716;9.070;2023-03-20T15:16:36;97203.03;;;16.79;47.87
6514;BME280;3290;47.716;9.070;2023-03-20T15:19:07;97193.38;;;16.68;47.25
6514;BME280;3290;47.716;9.070;2023-03-20T15:21:40;97195.94;;;16.26;48.85
6514;BME280;3290;47.716;9.070;2023-03-20T15:24:06;97199.34;;;16.42;47.68
6514;BME280;3290;47.716;9.070;2023-03-20T15:26:34;97194.22;;;16.52;48.39
6514;BME280;3290;47.716;9.070;2023-03-20T15:29:06;97201.16;;;16.58;47.71
6514;BME280;3290;47.716;9.070;2023-03-20T15:31:37;97190.63;;;16.42;47.65
6514;BME280;3290;47.716;9.070;2023-03-20T15:34:10;97195.69;;;16.43;47.94
6514;BME280;3290;47.716;9.070;2023-03-20T15:36:39;97197.38;;;16.33;48.81
6514;BME280;3290;47.716;9.070;2023-03-20T15:39:12;97203.19;;;16.51;47.60
6514;BME280;3290;47.716;9.070;2023-03-20T15:41:39;97197.78;;;16.42;48.07
6514;BME280;3290;47.716;9.070;2023-03-20T15:44:26;97204.97;;;16.46;48.91
6514;BME280;3290;47.716;9.070;2023-03-20T15:49:23;97199.53;;;16.20;49.08
6514;BME280;3290;47.716;9.070;2023-03-20T15:51:49;97197.78;;;16.42;49.32